Penn Yan, New York
Current Conditions -  °F | °C
As of 12:53 PM on Friday 21 Nov 2014 (Local Time) from KPEO Reporting Station
Clear Clear  
Wind Chill: 18°   Ceiling: Unl
Heat Index: 28°   Visibility: 10mi
Dew Point: 12°   Wind: 12mph
Humidity: 51%   Direction: 300°WNW
Pressure: 30.34"   Gusts: 18mph
Location:  42.66°N, 77.05°W
Report Text: KPEO 211753Z AUTO 30010G16KT 10SM CLR M02/M11 A3034 RMK AO2 SLP288 60000 T10221111 11022 21061 51015
Loading
Personal Weather Stations






























Interactive Weather Map New forecast layout! Learn more

10-Day Weather Forecast

Advertisements
Track Severe Weather on mobile